sensor_id;sensor_type;location;lat;lon;timestamp;pressure;altitude;pressure_sealevel;temperature;humidity
66398;BME280;54877;51.504;3.894;2023-03-22T00:02:19;100945.91;;;12.52;63.97
66398;BME280;54877;51.504;3.894;2023-03-22T00:04:44;100944.13;;;12.53;63.72
66398;BME280;54877;51.504;3.894;2023-03-22T00:07:10;100937.78;;;12.40;64.00
66398;BME280;54877;51.504;3.894;2023-03-22T00:09:35;100938.13;;;12.33;63.90
66398;BME280;54877;51.504;3.894;2023-03-22T00:12:01;100916.19;;;12.46;63.62
66398;BME280;54877;51.504;3.894;2023-03-22T00:14:26;100922.78;;;12.54;63.58
66398;BME280;54877;51.504;3.894;2023-03-22T00:16:51;100925.19;;;12.59;63.54
66398;BME280;54877;51.504;3.894;2023-03-22T00:19:17;100920.28;;;12.51;63.56
66398;BME280;54877;51.504;3.894;2023-03-22T00:21:42;100916.19;;;12.61;63.29
66398;BME280;54877;51.504;3.894;2023-03-22T00:24:07;100914.19;;;12.65;63.37
66398;BME280;54877;51.504;3.894;2023-03-22T00:26:33;100911.28;;;12.69;63.24
66398;BME280;54877;51.504;3.894;2023-03-22T00:28:58;100902.56;;;12.67;63.17
66398;BME280;54877;51.504;3.894;2023-03-22T00:31:24;100897.03;;;12.70;63.16
66398;BME280;54877;51.504;3.894;2023-03-22T00:33:49;100886.25;;;12.73;63.06
66398;BME280;54877;51.504;3.894;2023-03-22T00:36:14;100877.34;;;12.74;63.06
66398;BME280;54877;51.504;3.894;2023-03-22T00:38:40;100868.44;;;12.75;63.12
66398;BME280;54877;51.504;3.894;2023-03-22T00:41:06;100865.78;;;12.75;62.96
66398;BME280;54877;51.504;3.894;2023-03-22T00:43:32;100854.53;;;12.70;62.76
66398;BME280;54877;51.504;3.894;2023-03-22T00:45:58;100848.75;;;12.64;63.11
66398;BME280;54877;51.504;3.894;2023-03-22T00:48:23;100850.53;;;12.63;63.40
66398;BME280;54877;51.504;3.894;2023-03-22T00:50:49;100846.28;;;12.61;63.63
66398;BME280;54877;51.504;3.894;2023-03-22T00:53:14;100841.88;;;12.60;63.58
66398;BME280;54877;51.504;3.894;2023-03-22T00:55:39;100841.06;;;12.59;63.96
66398;BME280;54877;51.504;3.894;2023-03-22T00:58:05;100835.91;;;12.56;64.15
66398;BME280;54877;51.504;3.894;2023-03-22T01:00:30;100827.97;;;12.56;64.21
66398;BME280;54877;51.504;3.894;2023-03-22T01:02:57;100827.72;;;12.45;64.67
66398;BME280;54877;51.504;3.894;2023-03-22T01:05:23;100816.72;;;12.51;64.70
66398;BME280;54877;51.504;3.894;2023-03-22T01:07:49;100814.00;;;12.53;65.15
66398;BME280;54877;51.504;3.894;2023-03-22T01:10:15;100810.66;;;12.49;65.62
66398;BME280;54877;51.504;3.894;2023-03-22T01:12:41;100812.31;;;12.36;65.99
66398;BME280;54877;51.504;3.894;2023-03-22T01:15:06;100814.34;;;12.47;66.00
66398;BME280;54877;51.504;3.894;2023-03-22T01:17:32;100806.47;;;12.45;66.33
66398;BME280;54877;51.504;3.894;2023-03-22T01:19:57;100810.28;;;12.55;66.43
66398;BME280;54877;51.504;3.894;2023-03-22T01:22:23;100805.91;;;12.54;66.47
66398;BME280;54877;51.504;3.894;2023-03-22T01:24:48;100805.38;;;12.63;66.42
66398;BME280;54877;51.504;3.894;2023-03-22T01:27:14;100806.25;;;12.64;66.54
66398;BME280;54877;51.504;3.894;2023-03-22T01:29:40;100802.63;;;12.65;66.80
66398;BME280;54877;51.504;3.894;2023-03-22T01:32:05;100806.31;;;12.62;66.82
66398;BME280;54877;51.504;3.894;2023-03-22T01:34:31;100804.19;;;12.69;66.91
66398;BME280;54877;51.504;3.894;2023-03-22T01:36:56;100806.38;;;12.76;66.47
66398;BME280;54877;51.504;3.894;2023-03-22T01:39:21;100790.63;;;12.73;66.75
66398;BME280;54877;51.504;3.894;2023-03-22T01:41:47;100791.41;;;12.75;67.06
66398;BME280;54877;51.504;3.894;2023-03-22T01:44:13;100783.44;;;12.75;67.25
66398;BME280;54877;51.504;3.894;2023-03-22T01:46:44;100785.69;;;12.81;67.23
66398;BME280;54877;51.504;3.894;2023-03-22T01:49:18;100779.16;;;12.73;67.66
66398;BME280;54877;51.504;3.894;2023-03-22T01:52:06;100777.28;;;12.89;67.13
66398;BME280;54877;51.504;3.894;2023-03-22T01:54:39;100759.63;;;12.88;67.13
66398;BME280;54877;51.504;3.894;2023-03-22T01:57:11;100764.66;;;12.92;66.99
66398;BME280;54877;51.504;3.894;2023-03-22T01:59:37;100756.06;;;13.03;66.51
66398;BME280;54877;51.504;3.894;2023-03-22T02:02:04;100759.75;;;13.01;66.43
66398;BME280;54877;51.504;3.894;2023-03-22T02:04:31;100763.16;;;13.03;66.61
66398;BME280;54877;51.504;3.894;2023-03-22T02:07:03;100750.63;;;13.05;66.54
66398;BME280;54877;51.504;3.894;2023-03-22T02:09:39;100746.25;;;13.04;66.54
66398;BME280;54877;51.504;3.894;2023-03-22T02:35:32;100723.97;;;13.06;66.52
66398;BME280;54877;51.504;3.894;2023-03-22T02:40:37;100719.69;;;13.04;66.25
66398;BME280;54877;51.504;3.894;2023-03-22T02:43:33;100714.56;;;13.01;66.59
66398;BME280;54877;51.504;3.894;2023-03-22T02:46:17;100706.59;;;12.86;66.86
66398;BME280;54877;51.504;3.894;2023-03-22T02:51:31;100699.56;;;12.85;66.77
66398;BME280;54877;51.504;3.894;2023-03-22T02:54:01;100704.69;;;12.88;66.54
66398;BME280;54877;51.504;3.894;2023-03-22T02:56:40;100716.53;;;12.83;66.98
66398;BME280;54877;51.504;3.894;2023-03-22T02:59:11;100713.41;;;12.90;66.43
66398;BME280;54877;51.504;3.894;2023-03-22T03:01:41;100710.94;;;12.87;66.34
66398;BME280;54877;51.504;3.894;2023-03-22T03:04:14;100705.16;;;12.81;66.69
66398;BME280;54877;51.504;3.894;2023-03-22T03:06:44;100702.97;;;12.87;66.30
66398;BME280;54877;51.504;3.894;2023-03-22T03:09:13;100699.75;;;12.82;66.44
66398;BME280;54877;51.504;3.894;2023-03-22T03:11:44;100702.50;;;12.81;66.40
66398;BME280;54877;51.504;3.894;2023-03-22T03:14:27;100704.88;;;12.85;66.34
66398;BME280;54877;51.504;3.894;2023-03-22T03:23:01;100699.25;;;12.76;66.19
66398;BME280;54877;51.504;3.894;2023-03-22T03:28:33;100696.69;;;12.74;66.25
66398;BME280;54877;51.504;3.894;2023-03-22T03:33:33;100686.81;;;12.62;66.09
66398;BME280;54877;51.504;3.894;2023-03-22T03:36:04;100697.25;;;12.65;66.10
66398;BME280;54877;51.504;3.894;2023-03-22T03:38:35;100692.88;;;12.50;66.33
66398;BME280;54877;51.504;3.894;2023-03-22T03:41:09;100695.38;;;12.67;66.09
66398;BME280;54877;51.504;3.894;2023-03-22T03:43:38;100688.25;;;12.54;66.21
66398;BME280;54877;51.504;3.894;2023-03-22T03:46:05;100690.13;;;12.52;66.14
66398;BME280;54877;51.504;3.894;2023-03-22T03:48:32;100690.63;;;12.58;65.95
66398;BME280;54877;51.504;3.894;2023-03-22T03:51:00;100685.47;;;12.55;65.97
66398;BME280;54877;51.504;3.894;2023-03-22T03:53:26;100690.63;;;12.58;65.71
66398;BME280;54877;51.504;3.894;2023-03-22T03:55:52;100685.13;;;12.61;65.61
66398;BME280;54877;51.504;3.894;2023-03-22T03:58:18;100685.84;;;12.49;65.88
66398;BME280;54877;51.504;3.894;2023-03-22T04:00:43;100680.16;;;12.55;65.65
66398;BME280;54877;51.504;3.894;2023-03-22T04:03:10;100677.41;;;12.43;65.83
66398;BME280;54877;51.504;3.894;2023-03-22T04:05:36;100674.19;;;12.52;65.64
66398;BME280;54877;51.504;3.894;2023-03-22T04:08:02;100675.34;;;12.48;65.66
66398;BME280;54877;51.504;3.894;2023-03-22T04:10:28;100679.41;;;12.53;65.26
66398;BME280;54877;51.504;3.894;2023-03-22T04:12:54;100675.22;;;12.49;65.40
66398;BME280;54877;51.504;3.894;2023-03-22T04:15:19;100665.59;;;12.32;65.63
66398;BME280;54877;51.504;3.894;2023-03-22T04:17:45;100675.00;;;12.38;65.74
66398;BME280;54877;51.504;3.894;2023-03-22T04:20:13;100670.03;;;12.48;65.40
66398;BME280;54877;51.504;3.894;2023-03-22T04:22:39;100662.50;;;12.40;65.32
66398;BME280;54877;51.504;3.894;2023-03-22T04:25:08;100662.53;;;12.54;64.94
66398;BME280;54877;51.504;3.894;2023-03-22T04:27:38;100654.94;;;12.62;64.65
66398;BME280;54877;51.504;3.894;2023-03-22T04:30:05;100660.34;;;12.47;64.86
66398;BME280;54877;51.504;3.894;2023-03-22T04:32:34;100653.91;;;12.51;64.78
66398;BME280;54877;51.504;3.894;2023-03-22T04:34:59;100652.75;;;12.55;64.47
66398;BME280;54877;51.504;3.894;2023-03-22T04:37:25;100647.16;;;12.45;64.69
66398;BME280;54877;51.504;3.894;2023-03-22T04:39:51;100654.34;;;12.43;64.86
66398;BME280;54877;51.504;3.894;2023-03-22T04:42:17;100659.09;;;12.52;64.75
66398;BME280;54877;51.504;3.894;2023-03-22T04:44:43;100650.38;;;12.50;64.79
66398;BME280;54877;51.504;3.894;2023-03-22T04:47:08;100661.19;;;12.47;64.49
66398;BME280;54877;51.504;3.894;2023-03-22T04:49:34;100660.25;;;12.48;64.70
66398;BME280;54877;51.504;3.894;2023-03-22T04:51:59;100659.56;;;12.45;64.57
66398;BME280;54877;51.504;3.894;2023-03-22T04:54:24;100655.88;;;12.47;64.47
66398;BME280;54877;51.504;3.894;2023-03-22T04:56:50;100662.91;;;12.48;64.66
66398;BME280;54877;51.504;3.894;2023-03-22T04:59:16;100651.44;;;12.48;64.61
66398;BME280;54877;51.504;3.894;2023-03-22T05:01:44;100656.63;;;12.49;64.62
66398;BME280;54877;51.504;3.894;2023-03-22T05:04:10;100646.38;;;12.43;64.90
66398;BME280;54877;51.504;3.894;2023-03-22T05:06:36;100648.25;;;12.27;65.41
66398;BME280;54877;51.504;3.894;2023-03-22T05:09:04;100653.19;;;12.33;65.20
66398;BME280;54877;51.504;3.894;2023-03-22T05:11:30;100652.84;;;12.39;65.20
66398;BME280;54877;51.504;3.894;2023-03-22T05:13:55;100645.44;;;12.44;64.89
66398;BME280;54877;51.504;3.894;2023-03-22T05:16:22;100645.13;;;12.34;64.80
66398;BME280;54877;51.504;3.894;2023-03-22T05:18:48;100639.00;;;12.34;65.02
66398;BME280;54877;51.504;3.894;2023-03-22T05:21:18;100636.34;;;12.34;65.16
66398;BME280;54877;51.504;3.894;2023-03-22T05:23:53;100638.81;;;12.37;65.04
66398;BME280;54877;51.504;3.894;2023-03-22T05:26:22;100642.97;;;12.41;64.93
66398;BME280;54877;51.504;3.894;2023-03-22T05:28:50;100639.16;;;12.31;65.05
66398;BME280;54877;51.504;3.894;2023-03-22T05:31:17;100632.31;;;12.27;65.13
66398;BME280;54877;51.504;3.894;2023-03-22T05:33:45;100629.59;;;12.28;65.35
66398;BME280;54877;51.504;3.894;2023-03-22T05:36:11;100633.50;;;12.37;64.90
66398;BME280;54877;51.504;3.894;2023-03-22T05:38:37;100628.56;;;12.31;65.21
66398;BME280;54877;51.504;3.894;2023-03-22T05:41:02;100624.94;;;12.32;65.34
66398;BME280;54877;51.504;3.894;2023-03-22T05:43:28;100628.56;;;12.31;65.27
66398;BME280;54877;51.504;3.894;2023-03-22T05:45:53;100623.13;;;12.32;65.31
66398;BME280;54877;51.504;3.894;2023-03-22T05:48:18;100631.97;;;12.33;65.47
66398;BME280;54877;51.504;3.894;2023-03-22T05:50:44;100638.81;;;12.37;65.17
66398;BME280;54877;51.504;3.894;2023-03-22T05:53:09;100623.06;;;12.34;65.14
66398;BME280;54877;51.504;3.894;2023-03-22T05:55:36;100637.56;;;12.28;65.38
66398;BME280;54877;51.504;3.894;2023-03-22T05:58:01;100634.03;;;12.28;65.44
66398;BME280;54877;51.504;3.894;2023-03-22T06:00:29;100618.00;;;12.29;65.40
66398;BME280;54877;51.504;3.894;2023-03-22T06:02:56;100637.44;;;12.30;65.22
66398;BME280;54877;51.504;3.894;2023-03-22T06:05:24;100634.03;;;12.28;65.53
66398;BME280;54877;51.504;3.894;2023-03-22T06:07:50;100632.31;;;12.27;65.38
66398;BME280;54877;51.504;3.894;2023-03-22T06:10:15;100635.19;;;12.38;65.17
66398;BME280;54877;51.504;3.894;2023-03-22T06:12:42;100628.84;;;12.41;65.17
66398;BME280;54877;51.504;3.894;2023-03-22T06:15:08;100626.66;;;12.33;65.27
66398;BME280;54877;51.504;3.894;2023-03-22T06:17:34;100628.56;;;12.31;65.30
66398;BME280;54877;51.504;3.894;2023-03-22T06:20:00;100628.38;;;12.34;65.25
66398;BME280;54877;51.504;3.894;2023-03-22T06:22:32;100627.69;;;12.30;65.21
66398;BME280;54877;51.504;3.894;2023-03-22T06:24:58;100618.91;;;12.44;64.53
66398;BME280;54877;51.504;3.894;2023-03-22T06:27:23;100622.66;;;12.40;65.02
66398;BME280;54877;51.504;3.894;2023-03-22T06:29:48;100605.41;;;12.33;65.03
66398;BME280;54877;51.504;3.894;2023-03-22T06:32:14;100618.88;;;12.30;65.22
66398;BME280;54877;51.504;3.894;2023-03-22T06:34:40;100625.53;;;12.37;65.00
66398;BME280;54877;51.504;3.894;2023-03-22T06:37:05;100616.94;;;12.18;65.27
66398;BME280;54877;51.504;3.894;2023-03-22T06:39:31;100617.38;;;12.26;65.22
66398;BME280;54877;51.504;3.894;2023-03-22T06:41:56;100631.22;;;12.31;65.20
66398;BME280;54877;51.504;3.894;2023-03-22T06:44:21;100630.75;;;12.38;65.06
66398;BME280;54877;51.504;3.894;2023-03-22T06:46:47;100625.31;;;12.26;65.10
66398;BME280;54877;51.504;3.894;2023-03-22T06:49:12;100632.28;;;12.43;64.92
66398;BME280;54877;51.504;3.894;2023-03-22T06:51:37;100623.06;;;12.34;65.10
66398;BME280;54877;51.504;3.894;2023-03-22T06:54:03;100627.59;;;12.46;64.67
66398;BME280;54877;51.504;3.894;2023-03-22T06:56:28;100620.78;;;12.42;64.86
66398;BME280;54877;51.504;3.894;2023-03-22T06:58:53;100625.94;;;12.45;64.66
66398;BME280;54877;51.504;3.894;2023-03-22T07:01:21;100632.16;;;12.30;64.87
66398;BME280;54877;51.504;3.894;2023-03-22T07:03:47;100638.22;;;12.46;64.67
66398;BME280;54877;51.504;3.894;2023-03-22T07:06:12;100625.34;;;12.54;64.59
66398;BME280;54877;51.504;3.894;2023-03-22T07:08:38;100632.28;;;12.43;64.60
66398;BME280;54877;51.504;3.894;2023-03-22T07:11:03;100637.88;;;12.52;64.34
66398;BME280;54877;51.504;3.894;2023-03-22T07:13:29;100639.59;;;12.53;64.45
66398;BME280;54877;51.504;3.894;2023-03-22T07:15:55;100643.19;;;12.52;64.52
66398;BME280;54877;51.504;3.894;2023-03-22T07:18:21;100634.94;;;12.43;64.87
66398;BME280;54877;51.504;3.894;2023-03-22T07:20:47;100634.25;;;12.39;64.75
66398;BME280;54877;51.504;3.894;2023-03-22T07:23:12;100633.09;;;12.43;64.77
66398;BME280;54877;51.504;3.894;2023-03-22T07:25:39;100631.06;;;12.48;64.74
66398;BME280;54877;51.504;3.894;2023-03-22T07:28:04;100627.25;;;12.52;64.74
66398;BME280;54877;51.504;3.894;2023-03-22T07:30:30;100632.66;;;12.51;64.88
66398;BME280;54877;51.504;3.894;2023-03-22T07:32:59;100632.66;;;12.65;64.70
66398;BME280;54877;51.504;3.894;2023-03-22T07:35:25;100630.78;;;12.67;64.43
66398;BME280;54877;51.504;3.894;2023-03-22T07:37:51;100629.72;;;12.55;64.83
66398;BME280;54877;51.504;3.894;2023-03-22T07:40:17;100629.72;;;12.69;65.00
66398;BME280;54877;51.504;3.894;2023-03-22T07:42:42;100624.78;;;12.63;65.17
66398;BME280;54877;51.504;3.894;2023-03-22T07:45:08;100643.56;;;12.60;65.20
66398;BME280;54877;51.504;3.894;2023-03-22T07:47:33;100630.47;;;12.57;65.14
66398;BME280;54877;51.504;3.894;2023-03-22T07:49:59;100633.31;;;12.68;65.21
66398;BME280;54877;51.504;3.894;2023-03-22T07:52:24;100631.16;;;12.75;64.98
66398;BME280;54877;51.504;3.894;2023-03-22T07:54:49;100626.03;;;12.72;65.54
66398;BME280;54877;51.504;3.894;2023-03-22T07:57:15;100639.97;;;12.75;65.88
66398;BME280;54877;51.504;3.894;2023-03-22T07:59:40;100639.00;;;12.76;66.28
66398;BME280;54877;51.504;3.894;2023-03-22T08:02:08;100634.19;;;12.69;66.37
66398;BME280;54877;51.504;3.894;2023-03-22T08:04:36;100630.41;;;12.73;66.19
66398;BME280;54877;51.504;3.894;2023-03-22T08:07:02;100639.97;;;12.61;67.10
66398;BME280;54877;51.504;3.894;2023-03-22T08:09:27;100628.38;;;12.62;67.20
66398;BME280;54877;51.504;3.894;2023-03-22T08:11:52;100626.50;;;12.50;67.87
66398;BME280;54877;51.504;3.894;2023-03-22T08:14:17;100630.66;;;12.54;67.58
66398;BME280;54877;51.504;3.894;2023-03-22T08:16:43;100606.94;;;12.37;67.90
66398;BME280;54877;51.504;3.894;2023-03-22T08:19:11;100611.81;;;12.59;67.92
66398;BME280;54877;51.504;3.894;2023-03-22T08:21:37;100609.53;;;12.67;67.95
66398;BME280;54877;51.504;3.894;2023-03-22T08:24:03;100609.91;;;12.61;67.86
66398;BME280;54877;51.504;3.894;2023-03-22T08:26:29;100622.69;;;12.68;67.61
66398;BME280;54877;51.504;3.894;2023-03-22T08:28:54;100622.13;;;12.77;67.66
66398;BME280;54877;51.504;3.894;2023-03-22T08:31:21;100613.22;;;12.78;67.92
66398;BME280;54877;51.504;3.894;2023-03-22T08:33:46;100609.97;;;12.73;68.10
66398;BME280;54877;51.504;3.894;2023-03-22T08:36:15;100618.44;;;12.66;68.06
66398;BME280;54877;51.504;3.894;2023-03-22T08:38:42;100619.28;;;12.66;67.86
66398;BME280;54877;51.504;3.894;2023-03-22T08:41:09;100619.84;;;12.71;67.88
66398;BME280;54877;51.504;3.894;2023-03-22T08:43:35;100618.34;;;12.67;67.95
66398;BME280;54877;51.504;3.894;2023-03-22T08:46:00;100615.09;;;12.76;68.15
66398;BME280;54877;51.504;3.894;2023-03-22T08:48:25;100618.06;;;12.72;67.86
66398;BME280;54877;51.504;3.894;2023-03-22T08:50:53;100612.00;;;12.56;68.24
66398;BME280;54877;51.504;3.894;2023-03-22T08:53:18;100611.69;;;12.60;68.29
66398;BME280;54877;51.504;3.894;2023-03-22T08:55:43;100619.47;;;12.63;67.94
66398;BME280;54877;51.504;3.894;2023-03-22T08:58:10;100619.00;;;12.71;68.14
66398;BME280;54877;51.504;3.894;2023-03-22T09:00:36;100611.69;;;12.74;67.75
66398;BME280;54877;51.504;3.894;2023-03-22T09:03:03;100615.28;;;12.73;68.16
66398;BME280;54877;51.504;3.894;2023-03-22T09:05:28;100622.31;;;12.74;67.83
66398;BME280;54877;51.504;3.894;2023-03-22T09:07:53;100621.19;;;12.78;67.69
66398;BME280;54877;51.504;3.894;2023-03-22T09:10:19;100618.13;;;12.84;67.47
66398;BME280;54877;51.504;3.894;2023-03-22T09:12:44;100617.38;;;12.82;67.78
66398;BME280;54877;51.504;3.894;2023-03-22T09:15:09;100614.34;;;12.88;67.43
66398;BME280;54877;51.504;3.894;2023-03-22T09:17:35;100620.41;;;12.90;67.16
66398;BME280;54877;51.504;3.894;2023-03-22T09:20:00;100619.66;;;12.74;67.62
66398;BME280;54877;51.504;3.894;2023-03-22T09:22:26;100616.16;;;12.74;67.61
66398;BME280;54877;51.504;3.894;2023-03-22T09:24:51;100612.63;;;12.73;67.88
66398;BME280;54877;51.504;3.894;2023-03-22T09:27:17;100612.63;;;12.73;67.91
66398;BME280;54877;51.504;3.894;2023-03-22T09:29:42;100619.84;;;12.71;68.23
66398;BME280;54877;51.504;3.894;2023-03-22T09:32:07;100606.75;;;12.54;67.96
66398;BME280;54877;51.504;3.894;2023-03-22T09:34:33;100618.06;;;12.72;68.45
66398;BME280;54877;51.504;3.894;2023-03-22T09:36:58;100627.06;;;12.69;68.43
66398;BME280;54877;51.504;3.894;2023-03-22T09:39:26;100623.84;;;12.78;68.46
66398;BME280;54877;51.504;3.894;2023-03-22T09:41:53;100617.69;;;12.78;68.58
66398;BME280;54877;51.504;3.894;2023-03-22T09:44:28;100619.38;;;12.79;68.62
66398;BME280;54877;51.504;3.894;2023-03-22T09:46:59;100628.00;;;12.82;68.60
66398;BME280;54877;51.504;3.894;2023-03-22T09:49:31;100620.41;;;12.76;68.69
66398;BME280;54877;51.504;3.894;2023-03-22T09:52:00;100618.91;;;12.86;68.72
66398;BME280;54877;51.504;3.894;2023-03-22T09:54:31;100625.47;;;12.81;68.95
66398;BME280;54877;51.504;3.894;2023-03-22T09:59:51;100618.06;;;12.86;68.86
66398;BME280;54877;51.504;3.894;2023-03-22T10:02:35;100622.41;;;12.87;68.96
66398;BME280;54877;51.504;3.894;2023-03-22T10:05:12;100614.16;;;12.91;69.02
66398;BME280;54877;51.504;3.894;2023-03-22T10:07:53;100609.78;;;12.76;69.54
66398;BME280;54877;51.504;3.894;2023-03-22T10:10:28;100594.03;;;12.87;69.31
66398;BME280;54877;51.504;3.894;2023-03-22T10:13:11;100586.44;;;12.81;69.46
66398;BME280;54877;51.504;3.894;2023-03-22T10:16:05;100593.16;;;13.01;69.16
66398;BME280;54877;51.504;3.894;2023-03-22T10:18:39;100586.59;;;13.07;69.03
66398;BME280;54877;51.504;3.894;2023-03-22T10:21:11;100594.56;;;13.21;68.90
66398;BME280;54877;51.504;3.894;2023-03-22T10:23:46;100590.13;;;13.21;68.86
66398;BME280;54877;51.504;3.894;2023-03-22T10:26:23;100591.91;;;13.21;68.66
66398;BME280;54877;51.504;3.894;2023-03-22T10:31:25;100578.63;;;13.21;68.71
66398;BME280;54877;51.504;3.894;2023-03-22T10:36:18;100558.69;;;13.28;67.72
66398;BME280;54877;51.504;3.894;2023-03-22T10:38:55;100577.50;;;13.25;67.98
66398;BME280;54877;51.504;3.894;2023-03-22T10:41:24;100568.69;;;13.37;67.65
66398;BME280;54877;51.504;3.894;2023-03-22T10:43:57;100563.56;;;13.34;67.52
66398;BME280;54877;51.504;3.894;2023-03-22T10:46:26;100562.59;;;13.49;67.57
66398;BME280;54877;51.504;3.894;2023-03-22T10:48:58;100555.13;;;13.41;68.08
66398;BME280;54877;51.504;3.894;2023-03-22T10:51:34;100551.28;;;13.45;67.48
66398;BME280;54877;51.504;3.894;2023-03-22T10:54:04;100546.63;;;13.49;67.67
66398;BME280;54877;51.504;3.894;2023-03-22T10:56:34;100552.19;;;13.59;67.35
66398;BME280;54877;51.504;3.894;2023-03-22T10:58:59;100563.06;;;13.68;67.05
66398;BME280;54877;51.504;3.894;2023-03-22T11:01:29;100560.00;;;13.74;67.05
66398;BME280;54877;51.504;3.894;2023-03-22T11:03:58;100588.88;;;13.80;67.21
66398;BME280;54877;51.504;3.894;2023-03-22T11:06:48;100599.78;;;13.76;67.23
66398;BME280;54877;51.504;3.894;2023-03-22T11:09:19;100598.84;;;13.77;67.14
66398;BME280;54877;51.504;3.894;2023-03-22T11:11:53;100603.13;;;13.79;66.70
66398;BME280;54877;51.504;3.894;2023-03-22T11:14:25;100599.59;;;13.79;66.66
66398;BME280;54877;51.504;3.894;2023-03-22T11:16:55;100603.50;;;13.73;66.73
66398;BME280;54877;51.504;3.894;2023-03-22T11:19:24;100607.97;;;13.73;66.58
66398;BME280;54877;51.504;3.894;2023-03-22T11:21:55;100605.66;;;13.81;66.35
66398;BME280;54877;51.504;3.894;2023-03-22T11:24:26;100605.13;;;13.76;66.54
66398;BME280;54877;51.504;3.894;2023-03-22T11:27:02;100612.28;;;13.75;66.67
66398;BME280;54877;51.504;3.894;2023-03-22T11:29:49;100609.03;;;13.70;66.75
66398;BME280;54877;51.504;3.894;2023-03-22T11:32:20;100611.50;;;13.73;66.76
66398;BME280;54877;51.504;3.894;2023-03-22T11:37:51;100616.09;;;13.84;66.77
66398;BME280;54877;51.504;3.894;2023-03-22T11:40:21;100614.63;;;13.92;66.56
66398;BME280;54877;51.504;3.894;2023-03-22T11:42:52;100623.59;;;13.91;66.48
66398;BME280;54877;51.504;3.894;2023-03-22T11:45:28;100629.75;;;13.92;66.04
66398;BME280;54877;51.504;3.894;2023-03-22T11:48:04;100633.91;;;13.83;66.49
66398;BME280;54877;51.504;3.894;2023-03-22T11:50:33;100630.19;;;13.98;66.32
66398;BME280;54877;51.504;3.894;2023-03-22T11:53:02;100616.16;;;13.96;66.40
66398;BME280;54877;51.504;3.894;2023-03-22T11:55:30;100606.97;;;14.00;66.18
66398;BME280;54877;51.504;3.894;2023-03-22T11:58:03;100598.88;;;13.89;66.32
66398;BME280;54877;51.504;3.894;2023-03-22T12:00:31;100601.66;;;14.00;66.38
66398;BME280;54877;51.504;3.894;2023-03-22T12:03:03;100601.69;;;14.13;65.95
66398;BME280;54877;51.504;3.894;2023-03-22T12:05:32;100596.06;;;14.18;65.70
66398;BME280;54877;51.504;3.894;2023-03-22T12:08:14;100601.16;;;14.21;65.65
66398;BME280;54877;51.504;3.894;2023-03-22T12:10:49;100599.78;;;14.15;65.92
66398;BME280;54877;51.504;3.894;2023-03-22T12:13:22;100598.72;;;14.18;65.95
66398;BME280;54877;51.504;3.894;2023-03-22T12:15:57;100587.84;;;14.21;65.97
66398;BME280;54877;51.504;3.894;2023-03-22T12:18:30;100599.25;;;14.23;65.95
66398;BME280;54877;51.504;3.894;2023-03-22T12:21:02;100588.81;;;14.20;65.77
66398;BME280;54877;51.504;3.894;2023-03-22T12:23:29;100595.63;;;14.11;65.80
66398;BME280;54877;51.504;3.894;2023-03-22T12:28:27;100590.09;;;14.27;65.74
66398;BME280;54877;51.504;3.894;2023-03-22T12:30:58;100592.25;;;14.34;65.53
66398;BME280;54877;51.504;3.894;2023-03-22T12:33:28;100601.31;;;14.32;65.74
66398;BME280;54877;51.504;3.894;2023-03-22T12:36:01;100587.66;;;14.24;66.18
66398;BME280;54877;51.504;3.894;2023-03-22T12:38:45;100590.09;;;14.27;65.99
66398;BME280;54877;51.504;3.894;2023-03-22T12:41:15;100583.53;;;14.32;66.00
66398;BME280;54877;51.504;3.894;2023-03-22T12:44:00;100581.91;;;14.30;66.36
66398;BME280;54877;51.504;3.894;2023-03-22T12:46:30;100581.88;;;14.17;66.62
66398;BME280;54877;51.504;3.894;2023-03-22T12:49:01;100586.84;;;14.36;66.21
66398;BME280;54877;51.504;3.894;2023-03-22T12:51:43;100588.91;;;14.31;66.30
66398;BME280;54877;51.504;3.894;2023-03-22T12:54:10;100580.19;;;14.29;66.59
66398;BME280;54877;51.504;3.894;2023-03-22T12:56:40;100580.81;;;14.20;66.97
66398;BME280;54877;51.504;3.894;2023-03-22T12:59:11;100582.13;;;14.39;66.47
66398;BME280;54877;51.504;3.894;2023-03-22T13:01:45;100578.25;;;14.31;67.04
66398;BME280;54877;51.504;3.894;2023-03-22T13:18:00;100570.81;;;14.23;67.62
66398;BME280;54877;51.504;3.894;2023-03-22T13:35:44;100565.97;;;14.55;67.22
66398;BME280;54877;51.504;3.894;2023-03-22T13:38:35;100552.44;;;14.58;66.78
66398;BME280;54877;51.504;3.894;2023-03-22T13:41:21;100557.28;;;14.64;66.73
66398;BME280;54877;51.504;3.894;2023-03-22T13:44:17;100548.13;;;14.68;66.36
66398;BME280;54877;51.504;3.894;2023-03-22T13:46:50;100548.47;;;14.63;66.54
66398;BME280;54877;51.504;3.894;2023-03-22T13:51:59;100543.53;;;14.70;66.48
66398;BME280;54877;51.504;3.894;2023-03-22T13:54:39;100534.81;;;14.68;66.06
66398;BME280;54877;51.504;3.894;2023-03-22T14:02:54;100530.50;;;14.78;66.14
66398;BME280;54877;51.504;3.894;2023-03-22T14:05:24;100530.13;;;14.72;66.25
66398;BME280;54877;51.504;3.894;2023-03-22T14:07:54;100524.56;;;14.75;66.54
66398;BME280;54877;51.504;3.894;2023-03-22T14:10:30;100527.63;;;14.81;67.16
66398;BME280;54877;51.504;3.894;2023-03-22T14:13:16;100527.41;;;14.84;68.13
66398;BME280;54877;51.504;3.894;2023-03-22T14:15:51;100521.66;;;14.90;68.37
66398;BME280;54877;51.504;3.894;2023-03-22T14:18:22;100514.53;;;14.78;68.75
66398;BME280;54877;51.504;3.894;2023-03-22T14:20:53;100513.50;;;14.68;69.28
66398;BME280;54877;51.504;3.894;2023-03-22T14:23:24;100514.97;;;14.72;69.59
66398;BME280;54877;51.504;3.894;2023-03-22T14:25:55;100517.97;;;14.67;69.77
66398;BME280;54877;51.504;3.894;2023-03-22T14:28:36;100517.31;;;14.64;70.12
66398;BME280;54877;51.504;3.894;2023-03-22T14:31:05;100506.03;;;14.73;69.85